Main page
METAR-TAF:

METAR-TAF

Airports :

Asturias Airport

Avilés, Spain

latitude: 43-33N, longitude: 006-02W, elevation: 127 m

Current weather observation

The report was made 42 minutes ago, at 03:30 UTC
Wind 2 kt from variable directions
Temperature 16°C
Humidity 94%
Pressure 1023 hPa
Visibility 10 km or more
Broken clouds at a height of 5000 ft
Overcast at a height of 7000 ft

METAR: LEAS 200330Z AUTO VRB02KT 9999 BKN050 OVC070 16/15 Q1023

Time: 06:12 (04:12 UTC)

Forecast

The report was made 2 hours and 12 minutes ago, at 02:00 UTC
Forecast valid from 20 at 03 UTC to 21 at 03 UTC
Wind 5 kt from the Southeast
Visibility 10 km or more
Scattered clouds at a height of 2500 ft
Broken clouds at a height of 4000 ft
Probability 30% :
Temporary
from 20 at 03 UTC to 20 at 09 UTC
rain, drizzle
Temporary
from 20 at 10 UTC to 20 at 19 UTC
Wind 12 kt from the Northeast

TAF: LEAS 200200Z 2003/2103 13005KT 9999 SCT025 BKN040 TX23/2015Z TN15/2004Z PROB30 TEMPO 2003/2009 RADZ TEMPO 2010/2019 04012KT

Weather observations and forecasts of more than 4000 airports (METAR and TAF reports).

The available stations are represented by yellow and red dots on the map.

Hover mouse over dot to see the name of the station.

Then click to see weather observations and forecasts.

To change the map : click on the green buttons with a black cross to zoom in, on the green button with a dash to zoom out, or on the green arrows for adjacent maps.


METAR-TAF: